createdAt,value
2018-02-07T00:03:01.167Z,21.20
2018-02-07T00:08:03.706Z,21.20
2018-02-07T00:13:06.675Z,21.10
2018-02-07T00:18:09.509Z,21.10
2018-02-07T00:23:12.047Z,21.10
2018-02-07T00:28:15.002Z,21.00
2018-02-07T00:33:18.091Z,21.00
2018-02-07T00:38:20.625Z,20.90
2018-02-07T00:43:24.221Z,20.90
2018-02-07T00:48:27.017Z,20.80
2018-02-07T00:53:29.748Z,20.80
2018-02-07T00:58:32.880Z,20.80
2018-02-07T01:03:35.390Z,20.80
2018-02-07T01:08:39.111Z,20.70
2018-02-07T01:13:42.170Z,20.70
2018-02-07T01:18:45.032Z,20.70
2018-02-07T01:23:47.554Z,20.70
2018-02-07T01:28:51.014Z,20.60
2018-02-07T01:33:54.135Z,20.60
2018-02-07T01:38:56.781Z,20.60
2018-02-07T01:44:00.157Z,20.60
2018-02-07T01:49:02.878Z,20.50
2018-02-07T01:54:06.476Z,20.50
2018-02-07T01:59:09.006Z,20.50
2018-02-07T02:04:11.795Z,20.50
2018-02-07T02:09:14.430Z,20.40
2018-02-07T02:14:16.983Z,20.40
2018-02-07T02:19:20.975Z,20.40
2018-02-07T02:24:23.706Z,20.30
2018-02-07T02:29:27.011Z,20.30
2018-02-07T02:34:29.558Z,20.30
2018-02-07T02:39:32.603Z,20.30
2018-02-07T02:44:35.275Z,20.20
2018-02-07T02:49:37.804Z,20.20
2018-02-07T02:54:40.406Z,20.20
2018-02-07T02:59:43.800Z,20.20
2018-02-07T03:04:46.824Z,20.10
2018-02-07T03:09:49.374Z,20.10
2018-02-07T03:14:52.019Z,20.20
2018-02-07T03:19:54.905Z,20.10
2018-02-07T03:24:57.505Z,20.10
2018-02-07T03:30:00.328Z,20.10
2018-02-07T03:35:03.926Z,20.10
2018-02-07T03:40:06.828Z,20.10
2018-02-07T03:45:09.513Z,20.00
2018-02-07T03:50:12.834Z,20.00
2018-02-07T03:55:15.737Z,20.00
2018-02-07T04:00:18.283Z,20.00
2018-02-07T04:05:21.322Z,20.00
2018-02-07T04:10:24.221Z,19.90
2018-02-07T04:15:27.019Z,19.90
2018-02-07T04:20:29.660Z,19.90
2018-02-07T04:25:32.541Z,19.90
2018-02-07T04:30:36.022Z,19.90
2018-02-07T04:35:38.554Z,19.90
2018-02-07T04:40:41.954Z,19.80
2018-02-07T04:45:44.848Z,19.90
2018-02-07T04:50:47.652Z,19.80
2018-02-07T04:55:50.193Z,19.80
2018-02-07T05:00:52.783Z,19.80
2018-02-07T05:05:55.805Z,19.80
2018-02-07T05:10:58.572Z,19.70
2018-02-07T05:16:01.458Z,19.70
2018-02-07T05:21:04.762Z,19.70
2018-02-07T05:26:07.941Z,19.70
2018-02-07T05:31:10.688Z,19.70
2018-02-07T05:36:14.708Z,19.70
2018-02-07T05:41:17.225Z,19.70
2018-02-07T05:46:20.512Z,19.60
2018-02-07T05:51:23.783Z,19.60
2018-02-07T05:56:26.443Z,19.60
2018-02-07T06:01:29.295Z,19.60
2018-02-07T06:06:32.571Z,19.50
2018-02-07T06:11:35.120Z,19.50
2018-02-07T06:16:38.744Z,19.50
2018-02-07T06:21:41.679Z,19.50
2018-02-07T06:26:45.061Z,19.60
2018-02-07T06:31:47.629Z,19.60
2018-02-07T06:36:50.256Z,19.50
2018-02-07T06:41:52.791Z,19.50
2018-02-07T06:46:55.846Z,19.60
2018-02-07T06:51:58.746Z,19.50
2018-02-07T06:57:01.262Z,19.50
2018-02-07T07:02:03.832Z,19.50
2018-02-07T07:07:07.150Z,19.50
2018-02-07T07:12:09.701Z,19.50
2018-02-07T07:17:12.865Z,19.50
2018-02-07T07:22:15.551Z,19.50
2018-02-07T07:27:18.250Z,19.50
2018-02-07T07:32:21.628Z,19.50
2018-02-07T07:37:24.179Z,19.40
2018-02-07T07:42:26.687Z,19.50
2018-02-07T07:47:29.514Z,19.50
2018-02-07T07:52:32.220Z,19.50
2018-02-07T07:57:34.760Z,19.40
2018-02-07T08:02:37.305Z,19.50
2018-02-07T08:07:40.367Z,19.50
2018-02-07T08:12:43.730Z,19.50
2018-02-07T08:17:46.544Z,19.50
2018-02-07T08:22:49.961Z,19.50
2018-02-07T08:27:53.100Z,19.50
2018-02-07T08:32:57.099Z,19.40
2018-02-07T08:38:00.719Z,19.50
2018-02-07T08:43:03.559Z,19.50
2018-02-07T08:48:06.627Z,19.50
2018-02-07T08:53:10.440Z,19.60
2018-02-07T08:58:12.987Z,19.60
2018-02-07T09:03:16.009Z,19.60
2018-02-07T09:08:19.356Z,19.60
2018-02-07T09:13:21.949Z,19.60
2018-02-07T09:18:24.868Z,19.70
2018-02-07T09:23:27.496Z,19.70
2018-02-07T09:28:30.313Z,19.70
2018-02-07T09:33:33.047Z,19.70
2018-02-07T09:38:38.892Z,19.70
2018-02-07T09:43:41.746Z,19.70
2018-02-07T09:48:44.734Z,19.80
2018-02-07T09:53:48.316Z,19.90
2018-02-07T09:58:51.023Z,19.90
2018-02-07T10:03:53.755Z,19.90
2018-02-07T10:08:56.350Z,19.90
2018-02-07T10:13:59.642Z,19.90
2018-02-07T10:19:02.590Z,19.90
2018-02-07T10:24:05.411Z,19.90
2018-02-07T10:29:07.950Z,19.90
2018-02-07T10:34:11.546Z,19.90
2018-02-07T10:39:15.594Z,19.90
2018-02-07T10:44:18.351Z,19.90
2018-02-07T10:49:21.482Z,19.90
2018-02-07T10:54:24.023Z,19.90
2018-02-07T10:59:26.555Z,19.90
2018-02-07T11:04:29.441Z,19.80
2018-02-07T11:09:32.262Z,19.80
2018-02-07T11:14:34.969Z,19.80
2018-02-07T11:19:37.678Z,19.80
2018-02-07T11:24:40.461Z,19.80
2018-02-07T11:29:44.211Z,19.80
2018-02-07T11:34:46.775Z,19.90
2018-02-07T11:39:49.509Z,19.80
2018-02-07T11:44:52.853Z,19.90
2018-02-07T11:49:55.580Z,19.90
2018-02-07T11:54:58.165Z,19.90
2018-02-07T12:00:00.933Z,19.90
2018-02-07T12:05:03.476Z,19.90
2018-02-07T12:10:06.309Z,19.90
2018-02-07T12:15:09.064Z,19.90
2018-02-07T12:20:12.198Z,20.00
2018-02-07T12:25:14.715Z,20.00
2018-02-07T12:30:17.515Z,19.90
2018-02-07T12:35:20.333Z,19.90
2018-02-07T12:40:23.722Z,19.90
2018-02-07T12:45:26.632Z,19.90
2018-02-07T12:50:29.377Z,19.90
2018-02-07T12:55:32.390Z,19.90
2018-02-07T13:00:36.064Z,19.90
2018-02-07T13:05:39.252Z,19.90
2018-02-07T13:10:42.558Z,19.90
2018-02-07T13:15:46.288Z,19.90
2018-02-07T13:20:49.260Z,19.90
2018-02-07T13:25:52.138Z,19.90
2018-02-07T13:30:56.950Z,20.00
2018-02-07T13:35:59.863Z,19.80
2018-02-07T13:41:02.734Z,19.80
2018-02-07T13:46:05.325Z,19.80
2018-02-07T13:51:08.611Z,19.90
2018-02-07T13:56:11.194Z,19.90
2018-02-07T14:01:13.683Z,19.90
2018-02-07T14:06:16.208Z,19.90
2018-02-07T14:11:18.832Z,19.80
2018-02-07T14:16:21.428Z,19.80
2018-02-07T14:21:23.992Z,19.80
2018-02-07T14:26:26.539Z,19.90
2018-02-07T14:31:30.190Z,19.80
2018-02-07T14:36:33.691Z,19.80
2018-02-07T14:41:36.238Z,19.80
2018-02-07T14:46:39.529Z,19.80
2018-02-07T14:51:42.847Z,19.80
2018-02-07T14:56:46.485Z,19.80
2018-02-07T15:01:49.056Z,19.80
2018-02-07T15:06:51.664Z,19.80
2018-02-07T15:11:54.470Z,19.70
2018-02-07T15:16:57.270Z,19.70
2018-02-07T15:22:00.594Z,19.70
2018-02-07T15:27:03.820Z,19.70
2018-02-07T15:32:07.412Z,19.70
2018-02-07T15:37:10.048Z,19.70
2018-02-07T15:42:12.591Z,19.70
2018-02-07T15:47:15.115Z,19.70
2018-02-07T15:52:17.733Z,19.60
2018-02-07T15:57:20.235Z,19.60
2018-02-07T16:02:22.719Z,19.60
2018-02-07T16:07:25.693Z,19.60
2018-02-07T16:12:28.201Z,19.60
2018-02-07T16:17:31.487Z,19.60
2018-02-07T16:22:34.041Z,19.60
2018-02-07T16:27:37.315Z,19.60
2018-02-07T16:32:40.015Z,19.50
2018-02-07T16:37:42.816Z,19.60
2018-02-07T16:42:45.329Z,19.60
2018-02-07T16:47:47.846Z,19.60
2018-02-07T16:52:51.163Z,19.50
2018-02-07T16:57:53.769Z,19.50
2018-02-07T17:02:56.586Z,19.50
2018-02-07T17:07:59.154Z,19.60
2018-02-07T17:13:02.583Z,19.60
2018-02-07T17:18:05.197Z,19.60
2018-02-07T17:23:08.816Z,19.60
2018-02-07T17:28:11.376Z,19.60
2018-02-07T17:33:15.820Z,19.60
2018-02-07T17:38:18.357Z,19.60
2018-02-07T17:43:20.890Z,19.60
2018-02-07T17:48:24.758Z,19.60
2018-02-07T17:53:27.510Z,19.50
2018-02-07T17:58:30.830Z,19.50
2018-02-07T18:03:33.788Z,19.50
2018-02-07T18:08:36.713Z,19.50
2018-02-07T18:13:39.652Z,19.60
2018-02-07T18:18:42.507Z,19.50
2018-02-07T18:23:45.075Z,19.50
2018-02-07T18:28:47.962Z,19.50
2018-02-07T18:33:50.584Z,19.50
2018-02-07T18:38:53.271Z,19.50
2018-02-07T18:43:55.918Z,19.50
2018-02-07T18:48:59.060Z,19.50
2018-02-07T18:54:01.789Z,19.50
2018-02-07T18:59:04.361Z,19.50
2018-02-07T19:04:06.895Z,19.50
2018-02-07T19:09:09.491Z,19.50
2018-02-07T19:14:12.101Z,19.50
2018-02-07T19:19:15.015Z,19.50
2018-02-07T19:24:17.919Z,19.50
2018-02-07T19:29:20.686Z,19.50
2018-02-07T19:34:23.516Z,19.30
2018-02-07T19:39:26.416Z,19.40
2018-02-07T19:44:28.928Z,19.50
2018-02-07T19:49:32.344Z,19.50
2018-02-07T19:54:34.876Z,19.60
2018-02-07T19:59:37.526Z,19.60
2018-02-07T20:04:41.750Z,19.50
2018-02-07T20:09:44.652Z,19.60
2018-02-07T20:14:47.550Z,19.60
2018-02-07T20:19:50.251Z,19.70
2018-02-07T20:24:53.717Z,19.70
2018-02-07T20:29:56.260Z,19.70
2018-02-07T20:34:59.089Z,19.80
2018-02-07T20:40:01.620Z,19.80
2018-02-07T20:45:04.164Z,19.90
2018-02-07T20:50:06.926Z,19.90
2018-02-07T20:55:09.614Z,19.90
2018-02-07T21:00:12.130Z,20.00
2018-02-07T21:05:15.258Z,20.00
2018-02-07T21:10:17.894Z,20.10
2018-02-07T21:15:20.417Z,20.10
2018-02-07T21:20:22.942Z,20.10
2018-02-07T21:25:25.555Z,20.20
2018-02-07T21:30:28.164Z,20.20
2018-02-07T21:35:30.733Z,20.20
2018-02-07T21:40:33.734Z,20.20
2018-02-07T21:45:37.545Z,20.30
2018-02-07T21:50:40.086Z,20.30
2018-02-07T21:55:42.713Z,20.30
2018-02-07T22:00:45.584Z,20.30
2018-02-07T22:05:48.099Z,20.40
2018-02-07T22:10:50.833Z,20.40
2018-02-07T22:15:54.143Z,20.50
2018-02-07T22:20:57.746Z,20.40
2018-02-07T22:26:00.424Z,20.40
2018-02-07T22:31:03.397Z,20.40
2018-02-07T22:36:05.951Z,20.50
2018-02-07T22:41:08.542Z,20.40
2018-02-07T22:46:11.892Z,20.40
2018-02-07T22:51:14.441Z,20.40
2018-02-07T22:56:17.012Z,20.40
2018-02-07T23:01:19.962Z,20.40
2018-02-07T23:06:23.344Z,20.50
2018-02-07T23:11:26.145Z,20.50
2018-02-07T23:16:28.990Z,20.50
2018-02-07T23:21:32.099Z,20.50
2018-02-07T23:26:35.447Z,20.70
2018-02-07T23:31:38.263Z,20.70
2018-02-07T23:36:41.049Z,20.80
2018-02-07T23:41:44.134Z,20.90
2018-02-07T23:46:46.694Z,20.90
2018-02-07T23:51:49.984Z,21.00
2018-02-07T23:56:53.273Z,21.00
